createdAt,value
2019-05-05T00:00:52.050Z,101116.08
2019-05-05T00:04:14.895Z,101114.36
2019-05-05T00:07:25.417Z,101118.76
2019-05-05T00:10:54.149Z,101122.25
2019-05-05T00:14:05.147Z,101120.95
2019-05-05T00:17:20.624Z,101124.88
2019-05-05T00:20:25.054Z,101124.45
2019-05-05T00:23:28.852Z,101132.75
2019-05-05T00:26:34.802Z,101133.62
2019-05-05T00:29:37.992Z,101133.62
2019-05-05T00:32:41.765Z,101138.04
2019-05-05T00:35:45.433Z,101139.34
2019-05-05T00:38:49.459Z,101148.09
2019-05-05T00:41:55.331Z,101140.22
2019-05-05T00:44:58.886Z,101146.77
2019-05-05T00:48:09.113Z,101150.25
2019-05-05T00:51:14.991Z,101142.84
2019-05-05T00:54:18.605Z,101147.23
2019-05-05T00:57:24.303Z,101151.58
2019-05-05T01:00:46.088Z,101150.30
2019-05-05T01:03:50.121Z,101146.36
2019-05-05T01:06:54.398Z,101155.58
2019-05-05T01:09:58.254Z,101157.73
2019-05-05T01:13:02.024Z,101155.57
2019-05-05T01:16:05.696Z,101160.82
2019-05-05T01:19:09.442Z,101163.44
2019-05-05T01:22:14.400Z,101161.68
2019-05-05T01:25:18.526Z,101169.13
2019-05-05T01:28:22.273Z,101176.52
2019-05-05T01:31:26.126Z,101175.22
2019-05-05T01:34:34.874Z,101176.98
2019-05-05T01:37:44.314Z,101184.39
2019-05-05T01:41:05.673Z,101187.44
2019-05-05T01:44:09.645Z,101181.35
2019-05-05T01:47:14.811Z,101184.41
2019-05-05T01:50:21.423Z,101184.83
2019-05-05T01:53:24.587Z,101186.15
2019-05-05T01:56:28.716Z,101186.13
2019-05-05T01:59:35.213Z,101190.50
2019-05-05T02:02:38.386Z,101195.31
2019-05-05T02:05:42.073Z,101195.30
2019-05-05T02:08:45.830Z,101193.98
2019-05-05T02:11:49.580Z,101197.92
2019-05-05T02:14:55.120Z,101196.19
2019-05-05T02:17:59.187Z,101202.27
2019-05-05T02:21:07.401Z,101196.59
2019-05-05T02:24:11.259Z,101197.45
2019-05-05T02:27:15.873Z,101200.96
2019-05-05T02:30:46.476Z,101199.66
2019-05-05T02:33:49.933Z,101200.52
2019-05-05T02:36:56.292Z,101202.24
2019-05-05T02:40:04.353Z,101197.47
2019-05-05T02:43:05.566Z,101197.89
2019-05-05T02:46:18.818Z,101200.09
2019-05-05T02:49:25.536Z,101202.70
2019-05-05T02:52:30.813Z,101203.54
2019-05-05T02:55:35.264Z,101204.43
2019-05-05T02:58:39.430Z,101203.12
2019-05-05T03:01:55.064Z,101201.82
2019-05-05T03:04:59.278Z,101207.48
2019-05-05T03:08:04.838Z,101210.06
2019-05-05T03:11:09.637Z,101208.76
2019-05-05T03:14:14.667Z,101217.50
2019-05-05T03:17:19.085Z,101213.13
2019-05-05T03:20:23.784Z,101213.53
2019-05-05T03:23:27.826Z,101215.72
2019-05-05T03:26:33.890Z,101217.45
2019-05-05T03:29:37.405Z,101216.15
2019-05-05T03:32:45.237Z,101228.39
2019-05-05T03:35:47.248Z,101234.00
2019-05-05T03:38:53.570Z,101232.25
2019-05-05T03:42:07.422Z,101232.27
2019-05-05T03:45:30.487Z,101235.75
2019-05-05T03:48:34.733Z,101247.45
2019-05-05T03:51:38.934Z,101245.73
2019-05-05T03:54:43.755Z,101252.27
2019-05-05T03:57:48.307Z,101250.53
2019-05-05T04:01:31.252Z,101252.27
2019-05-05T04:04:44.574Z,101245.78
2019-05-05T04:07:48.634Z,101260.60
2019-05-05T04:10:54.511Z,101260.14
2019-05-05T04:13:58.041Z,101261.47
2019-05-05T04:17:14.176Z,101271.05
2019-05-05T04:20:36.650Z,101268.45
2019-05-05T04:23:40.327Z,101277.59
2019-05-05T04:26:44.173Z,101278.92
2019-05-05T04:29:47.993Z,101278.03
2019-05-05T04:32:51.685Z,101287.64
2019-05-05T04:35:55.489Z,101289.38
2019-05-05T04:38:59.168Z,101288.10
2019-05-05T04:42:04.775Z,101290.71
2019-05-05T04:45:08.727Z,101290.30
2019-05-05T04:48:24.138Z,101296.86
2019-05-05T04:51:46.289Z,101307.30
2019-05-05T04:54:43.922Z,101297.28
2019-05-05T04:57:47.822Z,101304.74
2019-05-05T05:00:51.622Z,101311.30
2019-05-05T05:04:14.330Z,101316.98
2019-05-05T05:07:18.678Z,101307.40
2019-05-05T05:10:24.060Z,101317.89
2019-05-05T05:13:27.811Z,101317.48
2019-05-05T05:16:31.575Z,101319.69
2019-05-05T05:19:35.280Z,101326.69
2019-05-05T05:22:38.960Z,101330.60
2019-05-05T05:25:43.872Z,101328.42
2019-05-05T05:28:47.727Z,101327.98
2019-05-05T05:31:53.454Z,101334.08
2019-05-05T05:34:56.959Z,101344.59
2019-05-05T05:38:00.934Z,101342.41
2019-05-05T05:41:13.668Z,101352.41
2019-05-05T05:44:38.082Z,101360.73
2019-05-05T05:48:19.258Z,101365.11
2019-05-05T05:51:23.829Z,101368.98
2019-05-05T05:54:27.680Z,101363.75
2019-05-05T05:57:31.368Z,101373.78
2019-05-05T06:00:35.144Z,101369.72
2019-05-05T06:03:38.814Z,101364.52
2019-05-05T06:06:43.864Z,101367.95
2019-05-05T06:09:48.243Z,101361.80
2019-05-05T06:12:54.142Z,101368.66
2019-05-05T06:15:58.384Z,101371.28
2019-05-05T06:19:03.654Z,101375.08
2019-05-05T06:22:07.459Z,101370.09
2019-05-05T06:25:11.418Z,101376.61
2019-05-05T06:28:15.098Z,101380.91
2019-05-05T06:31:18.843Z,101386.55
2019-05-05T06:34:24.474Z,101389.90
2019-05-05T06:37:28.018Z,101387.88
2019-05-05T06:41:04.192Z,101396.50
2019-05-05T06:44:18.068Z,101392.47
2019-05-05T06:47:27.957Z,101401.45
2019-05-05T06:50:31.629Z,101399.98
2019-05-05T06:53:35.318Z,101405.55
2019-05-05T06:56:39.012Z,101418.55
2019-05-05T06:59:43.917Z,101421.42
2019-05-05T07:02:47.757Z,101421.28
2019-05-05T07:05:53.739Z,101423.44
2019-05-05T07:08:57.217Z,101425.38
2019-05-05T07:12:00.875Z,101424.30
2019-05-05T07:15:05.198Z,101421.66
2019-05-05T07:18:08.952Z,101421.88
2019-05-05T07:21:14.291Z,101422.52
2019-05-05T07:24:18.211Z,101422.58
2019-05-05T07:27:21.877Z,101422.92
2019-05-05T07:30:25.675Z,101420.92
2019-05-05T07:33:29.648Z,101420.16
2019-05-05T07:36:40.961Z,101423.34
2019-05-05T07:39:44.992Z,101423.59
2019-05-05T07:42:48.955Z,101422.89
2019-05-05T07:45:54.031Z,101423.78
2019-05-05T07:48:58.005Z,101432.39
2019-05-05T07:52:03.905Z,101429.15
2019-05-05T07:55:07.215Z,101426.69
2019-05-05T07:58:13.711Z,101422.19
2019-05-05T08:01:16.847Z,101426.42
2019-05-05T08:04:21.261Z,101419.90
2019-05-05T08:07:25.091Z,101417.20
2019-05-05T08:10:29.231Z,101422.24
2019-05-05T08:13:33.614Z,101416.42
2019-05-05T08:16:45.166Z,101419.48
2019-05-05T08:19:58.896Z,101426.65
2019-05-05T08:23:04.284Z,101429.28
2019-05-05T08:26:17.309Z,101430.34
2019-05-05T08:29:36.599Z,101437.89
2019-05-05T08:32:40.851Z,101439.69
2019-05-05T08:35:45.152Z,101439.80
2019-05-05T08:38:48.941Z,101439.00
2019-05-05T08:41:53.841Z,101444.81
2019-05-05T08:44:57.981Z,101438.41
2019-05-05T08:48:01.698Z,101435.17
2019-05-05T08:51:05.571Z,101438.45
2019-05-05T08:54:09.339Z,101434.45
2019-05-05T08:57:14.698Z,101425.20
2019-05-05T09:00:18.828Z,101423.31
2019-05-05T09:03:24.321Z,101431.55
2019-05-05T09:06:28.613Z,101438.36
2019-05-05T09:09:33.520Z,101432.33
2019-05-05T09:12:37.666Z,101429.84
2019-05-05T09:15:41.433Z,101421.66
2019-05-05T09:19:01.102Z,101424.97
2019-05-05T09:22:08.514Z,101419.50
2019-05-05T09:25:35.947Z,101422.17
2019-05-05T09:28:48.803Z,101417.73
2019-05-05T09:31:54.005Z,101414.14
2019-05-05T09:34:58.435Z,101412.39
2019-05-05T09:38:03.979Z,101408.84
2019-05-05T09:41:07.998Z,101408.16
2019-05-05T09:44:13.575Z,101416.27
2019-05-05T09:47:18.295Z,101417.62
2019-05-05T09:50:23.726Z,101417.06
2019-05-05T09:53:28.217Z,101417.05
2019-05-05T09:56:33.807Z,101424.41
2019-05-05T09:59:40.153Z,101423.91
2019-05-05T10:02:44.119Z,101422.65
2019-05-05T10:05:48.245Z,101421.52
2019-05-05T10:08:53.829Z,101419.53
2019-05-05T10:11:57.724Z,101411.78
2019-05-05T10:15:01.478Z,101415.47
2019-05-05T10:18:05.421Z,101414.98
2019-05-05T10:21:09.174Z,101412.53
2019-05-05T10:24:33.875Z,101416.95
2019-05-05T10:27:45.012Z,101420.29
2019-05-05T10:30:43.710Z,101415.52
2019-05-05T10:33:53.950Z,101405.48
2019-05-05T10:36:57.770Z,101406.77
2019-05-05T10:40:03.533Z,101408.94
2019-05-05T10:43:07.146Z,101410.14
2019-05-05T10:46:11.106Z,101407.59
2019-05-05T10:49:14.809Z,101408.57
2019-05-05T10:52:18.532Z,101413.69
2019-05-05T10:55:23.916Z,101409.50
2019-05-05T10:58:27.811Z,101411.58
2019-05-05T11:01:31.517Z,101403.34
2019-05-05T11:04:35.468Z,101410.50
2019-05-05T11:07:39.688Z,101420.77
2019-05-05T11:10:44.894Z,101419.42
2019-05-05T11:13:49.351Z,101435.11
2019-05-05T11:16:54.641Z,101428.52
2019-05-05T11:19:58.620Z,101426.42
2019-05-05T11:23:02.308Z,101430.19
2019-05-05T11:26:06.065Z,101435.73
2019-05-05T11:29:09.762Z,101428.17
2019-05-05T11:32:18.526Z,101422.44
2019-05-05T11:35:24.501Z,101425.70
2019-05-05T11:38:28.358Z,101415.22
2019-05-05T11:41:32.072Z,101423.53
2019-05-05T11:44:36.785Z,101422.66
2019-05-05T11:47:40.491Z,101418.39
2019-05-05T11:50:44.264Z,101426.67
2019-05-05T11:53:48.297Z,101419.91
2019-05-05T11:56:53.950Z,101426.84
2019-05-05T11:59:58.214Z,101437.16
2019-05-05T12:03:03.825Z,101430.72
2019-05-05T12:06:07.951Z,101435.17
2019-05-05T12:09:29.375Z,101423.06
2019-05-05T12:12:33.704Z,101425.85
2019-05-05T12:15:37.352Z,101430.45
2019-05-05T12:18:41.034Z,101425.80
2019-05-05T12:21:45.165Z,101424.23
2019-05-05T12:24:49.634Z,101417.06
2019-05-05T12:28:06.967Z,101423.98
2019-05-05T12:31:15.632Z,101421.93
2019-05-05T12:34:19.394Z,101422.06
2019-05-05T12:37:23.694Z,101428.61
2019-05-05T12:40:27.521Z,101430.75
2019-05-05T12:43:31.203Z,101433.56
2019-05-05T12:46:47.386Z,101430.25
2019-05-05T12:49:51.076Z,101421.80
2019-05-05T12:52:55.001Z,101422.63
2019-05-05T12:55:59.042Z,101417.63
2019-05-05T12:59:05.274Z,101420.71
2019-05-05T13:02:09.119Z,101418.47
2019-05-05T13:05:14.478Z,101410.26
2019-05-05T13:08:18.589Z,101421.05
2019-05-05T13:11:23.816Z,101417.59
2019-05-05T13:14:27.692Z,101411.23
2019-05-05T13:17:33.783Z,101410.88
2019-05-05T13:20:53.603Z,101420.61
2019-05-05T13:24:09.544Z,101418.32
2019-05-05T13:27:19.596Z,101424.19
2019-05-05T13:30:23.622Z,101428.22
2019-05-05T13:33:27.425Z,101437.35
2019-05-05T13:36:31.121Z,101426.33
2019-05-05T13:39:34.810Z,101422.81
2019-05-05T13:42:38.770Z,101425.55
2019-05-05T13:45:55.664Z,101431.66
2019-05-05T13:49:17.413Z,101434.13
2019-05-05T13:52:21.445Z,101433.75
2019-05-05T13:55:25.200Z,101428.63
2019-05-05T13:58:28.915Z,101426.52
2019-05-05T14:01:34.197Z,101424.45
2019-05-05T14:04:38.005Z,101426.84
2019-05-05T14:07:43.670Z,101433.89
2019-05-05T14:10:47.283Z,101436.80
2019-05-05T14:13:50.998Z,101439.91
2019-05-05T14:16:54.762Z,101442.41
2019-05-05T14:20:04.667Z,101439.64
2019-05-05T14:23:04.080Z,101437.50
2019-05-05T14:26:07.733Z,101431.00
2019-05-05T14:29:14.625Z,101435.69
2019-05-05T14:32:19.715Z,101438.57
2019-05-05T14:35:39.032Z,101428.00
2019-05-05T14:38:49.581Z,101444.55
2019-05-05T14:41:53.953Z,101445.12
2019-05-05T14:44:58.120Z,101442.73
2019-05-05T14:48:03.840Z,101442.94
2019-05-05T14:51:07.259Z,101449.95
2019-05-05T14:54:11.031Z,101443.62
2019-05-05T14:57:14.793Z,101445.64
2019-05-05T15:00:21.723Z,101437.86
2019-05-05T15:03:25.446Z,101444.17
2019-05-05T15:06:48.498Z,101457.27
2019-05-05T15:10:01.741Z,101448.63
2019-05-05T15:13:07.297Z,101441.59
2019-05-05T15:16:11.148Z,101441.61
2019-05-05T15:19:14.844Z,101448.77
2019-05-05T15:22:18.553Z,101445.39
2019-05-05T15:25:23.485Z,101442.11
2019-05-05T15:28:27.383Z,101442.16
2019-05-05T15:31:31.352Z,101436.39
2019-05-05T15:34:35.064Z,101438.14
2019-05-05T15:37:38.827Z,101448.83
2019-05-05T15:40:44.972Z,101444.37
2019-05-05T15:43:48.236Z,101450.55
2019-05-05T15:46:54.923Z,101450.25
2019-05-05T15:49:57.383Z,101456.08
2019-05-05T15:53:01.374Z,101451.73
2019-05-05T15:56:05.144Z,101454.94
2019-05-05T15:59:08.831Z,101457.25
2019-05-05T16:02:13.393Z,101466.55
2019-05-05T16:05:17.639Z,101463.23
2019-05-05T16:08:21.754Z,101460.20
2019-05-05T16:11:26.959Z,101459.98
2019-05-05T16:14:32.691Z,101465.11
2019-05-05T16:17:43.927Z,101466.44
2019-05-05T16:20:54.519Z,101466.39
2019-05-05T16:24:03.551Z,101472.12
2019-05-05T16:27:18.690Z,101471.66
2019-05-05T16:30:14.438Z,101469.00
2019-05-05T16:33:18.233Z,101471.91
2019-05-05T16:36:24.236Z,101465.02
2019-05-05T16:39:27.359Z,101470.33
2019-05-05T16:42:31.055Z,101465.66
2019-05-05T16:45:34.764Z,101456.73
2019-05-05T16:48:38.453Z,101460.17
2019-05-05T16:51:47.614Z,101465.13
2019-05-05T16:55:20.286Z,101457.37
2019-05-05T16:58:24.678Z,101451.33
2019-05-05T17:01:28.822Z,101452.66
2019-05-05T17:04:32.811Z,101459.30
2019-05-05T17:07:36.590Z,101466.35
2019-05-05T17:10:40.456Z,101468.39
2019-05-05T17:13:49.499Z,101460.92
2019-05-05T17:17:03.818Z,101467.13
2019-05-05T17:20:11.553Z,101470.19
2019-05-05T17:23:15.632Z,101469.38
2019-05-05T17:26:19.641Z,101471.37
2019-05-05T17:29:23.615Z,101469.84
2019-05-05T17:32:27.439Z,101477.20
2019-05-05T17:35:31.171Z,101467.41
2019-05-05T17:38:35.339Z,101476.24
2019-05-05T17:42:16.501Z,101472.20
2019-05-05T17:45:51.237Z,101484.24
2019-05-05T17:49:14.031Z,101481.45
2019-05-05T17:52:35.764Z,101482.33
2019-05-05T17:55:41.077Z,101482.04
2019-05-05T17:58:45.033Z,101490.00
2019-05-05T18:01:49.193Z,101485.25
2019-05-05T18:04:54.098Z,101496.29
2019-05-05T18:07:58.016Z,101493.51
2019-05-05T18:11:06.539Z,101486.83
2019-05-05T18:14:15.255Z,101492.30
2019-05-05T18:17:18.964Z,101503.57
2019-05-05T18:20:24.326Z,101499.58
2019-05-05T18:23:28.126Z,101509.46
2019-05-05T18:26:34.105Z,101509.77
2019-05-05T18:29:38.011Z,101506.66
2019-05-05T18:32:41.707Z,101502.45
2019-05-05T18:35:45.668Z,101506.62
2019-05-05T18:38:49.373Z,101507.59
2019-05-05T18:42:05.204Z,101511.63
2019-05-05T18:45:11.504Z,101515.56
2019-05-05T18:48:15.203Z,101518.01
2019-05-05T18:51:18.916Z,101515.56
2019-05-05T18:54:22.841Z,101515.97
2019-05-05T18:57:27.338Z,101518.45
2019-05-05T19:00:56.254Z,101515.15
2019-05-05T19:04:37.249Z,101519.99
2019-05-05T19:07:54.885Z,101526.29
2019-05-05T19:10:51.228Z,101521.27
2019-05-05T19:13:54.922Z,101527.12
2019-05-05T19:16:59.476Z,101522.97
2019-05-05T19:20:08.371Z,101530.31
2019-05-05T19:23:12.086Z,101529.84
2019-05-05T19:26:16.117Z,101521.32
2019-05-05T19:29:19.806Z,101529.47
2019-05-05T19:32:23.759Z,101530.88
2019-05-05T19:35:40.196Z,101534.10
2019-05-05T19:38:34.553Z,101536.62
2019-05-05T19:41:38.454Z,101534.69
2019-05-05T19:44:43.787Z,101532.45
2019-05-05T19:47:47.565Z,101526.92
2019-05-05T19:50:58.315Z,101528.45
2019-05-05T19:54:03.570Z,101532.81
2019-05-05T19:57:07.861Z,101529.98
2019-05-05T20:00:12.021Z,101537.09
2019-05-05T20:03:16.099Z,101541.13
2019-05-05T20:06:19.790Z,101540.14
2019-05-05T20:09:24.729Z,101537.33
2019-05-05T20:12:28.512Z,101543.02
2019-05-05T20:15:38.026Z,101539.81
2019-05-05T20:18:43.649Z,101539.22
2019-05-05T20:21:47.145Z,101548.95
2019-05-05T20:24:50.839Z,101542.69
2019-05-05T20:27:55.999Z,101541.48
2019-05-05T20:30:59.875Z,101546.50
2019-05-05T20:34:13.577Z,101543.26
2019-05-05T20:37:19.650Z,101540.42
2019-05-05T20:40:26.072Z,101540.12
2019-05-05T20:43:29.779Z,101548.84
2019-05-05T20:46:34.322Z,101546.65
2019-05-05T20:49:38.063Z,101543.73
2019-05-05T20:52:41.757Z,101546.77
2019-05-05T20:55:45.452Z,101544.67
2019-05-05T20:58:49.233Z,101538.69
2019-05-05T21:01:52.949Z,101539.84
2019-05-05T21:04:56.638Z,101544.98
2019-05-05T21:08:00.597Z,101537.59
2019-05-05T21:11:04.673Z,101538.16
2019-05-05T21:14:08.403Z,101536.83
2019-05-05T21:17:13.644Z,101532.30
2019-05-05T21:20:17.709Z,101528.14
2019-05-05T21:23:25.447Z,101534.36
2019-05-05T21:26:48.261Z,101527.34
2019-05-05T21:29:54.233Z,101527.09
2019-05-05T21:32:57.439Z,101529.31
2019-05-05T21:36:01.205Z,101522.08
2019-05-05T21:39:06.407Z,101518.67
2019-05-05T21:42:10.495Z,101526.05
2019-05-05T21:45:14.328Z,101519.48
2019-05-05T21:48:18.037Z,101523.53
2019-05-05T21:51:29.993Z,101516.28
2019-05-05T21:54:39.665Z,101519.33
2019-05-05T21:58:06.254Z,101514.98
2019-05-05T22:01:17.397Z,101513.27
2019-05-05T22:04:21.091Z,101510.22
2019-05-05T22:07:24.786Z,101515.56
2019-05-05T22:10:28.489Z,101513.52
2019-05-05T22:13:36.170Z,101512.70
2019-05-05T22:16:37.585Z,101516.75
2019-05-05T22:19:46.867Z,101511.87
2019-05-05T22:22:50.752Z,101510.19
2019-05-05T22:25:54.516Z,101508.37
2019-05-05T22:28:58.133Z,101508.77
2019-05-05T22:32:01.825Z,101500.25
2019-05-05T22:35:06.049Z,101503.73
2019-05-05T22:38:10.040Z,101507.47
2019-05-05T22:41:15.886Z,101509.05
2019-05-05T22:44:19.712Z,101507.73
2019-05-05T22:47:23.722Z,101508.27
2019-05-05T22:50:27.604Z,101510.88
2019-05-05T22:53:31.299Z,101506.27
2019-05-05T22:56:35.316Z,101501.35
2019-05-05T22:59:39.002Z,101496.37
2019-05-05T23:02:47.034Z,101501.32
2019-05-05T23:05:57.376Z,101495.23
2019-05-05T23:09:01.242Z,101489.12
2019-05-05T23:12:05.468Z,101485.68
2019-05-05T23:15:09.601Z,101489.54
2019-05-05T23:18:19.662Z,101492.28
2019-05-05T23:21:30.168Z,101488.30
2019-05-05T23:24:43.516Z,101488.89
2019-05-05T23:27:47.798Z,101492.06
2019-05-05T23:30:51.787Z,101488.30
2019-05-05T23:33:55.474Z,101485.20
2019-05-05T23:36:59.164Z,101485.72
2019-05-05T23:40:03.796Z,101490.81
2019-05-05T23:43:07.572Z,101486.39
2019-05-05T23:46:11.269Z,101487.09
2019-05-05T23:49:15.579Z,101486.34
2019-05-05T23:52:19.281Z,101486.23
2019-05-05T23:55:23.895Z,101487.91
2019-05-05T23:58:28.281Z,101490.79
